sensor_id;sensor_type;location;lat;lon;timestamp;temperature;humidity
82877;DHT22;72655;47.596;7.658;2023-12-04T06:31:37;-2.20;99.90
82877;DHT22;72655;47.596;7.658;2023-12-04T06:34:05;-2.20;99.90
82877;DHT22;72655;47.596;7.658;2023-12-04T06:36:37;-2.20;99.90
82877;DHT22;72655;47.596;7.658;2023-12-04T06:39:07;-2.20;99.90
82877;DHT22;72655;47.596;7.658;2023-12-04T06:41:36;-2.20;99.90
82877;DHT22;72655;47.596;7.658;2023-12-04T06:44:04;-2.20;99.90
82877;DHT22;72655;47.596;7.658;2023-12-04T06:46:31;-2.20;99.90
82877;DHT22;72655;47.596;7.658;2023-12-04T06:49:03;-2.20;99.90
82877;DHT22;72655;47.596;7.658;2023-12-04T06:51:30;-2.20;99.90
82877;DHT22;72655;47.596;7.658;2023-12-04T06:53:58;-2.20;99.90
82877;DHT22;72655;47.596;7.658;2023-12-04T06:56:25;-2.10;99.90
82877;DHT22;72655;47.596;7.658;2023-12-04T06:58:52;-2.10;99.90
82877;DHT22;72655;47.596;7.658;2023-12-04T07:01:19;-2.10;99.90
82877;DHT22;72655;47.596;7.658;2023-12-04T07:03:47;-2.10;99.90
82877;DHT22;72655;47.596;7.658;2023-12-04T07:06:15;-2.10;99.90
82877;DHT22;72655;47.596;7.658;2023-12-04T07:08:44;-2.10;99.90
82877;DHT22;72655;47.596;7.658;2023-12-04T07:11:11;-2.10;99.90
82877;DHT22;72655;47.596;7.658;2023-12-04T07:13:40;-2.10;99.90
82877;DHT22;72655;47.596;7.658;2023-12-04T07:16:08;-2.10;99.90
82877;DHT22;72655;47.596;7.658;2023-12-04T07:18:35;-2.10;99.90
82877;DHT22;72655;47.596;7.658;2023-12-04T07:21:02;-2.10;99.90
82877;DHT22;72655;47.596;7.658;2023-12-04T07:23:30;-2.10;99.90
82877;DHT22;72655;47.596;7.658;2023-12-04T07:25:59;-2.10;99.90
82877;DHT22;72655;47.596;7.658;2023-12-04T07:28:26;-2.10;99.90
82877;DHT22;72655;47.596;7.658;2023-12-04T07:30:54;-2.10;99.90
82877;DHT22;72655;47.596;7.658;2023-12-04T07:33:21;-2.10;99.90
82877;DHT22;72655;47.596;7.658;2023-12-04T07:35:48;-2.10;99.90
82877;DHT22;72655;47.596;7.658;2023-12-04T07:38:16;-2.10;99.90
82877;DHT22;72655;47.596;7.658;2023-12-04T07:40:45;-2.00;99.90
82877;DHT22;72655;47.596;7.658;2023-12-04T07:43:12;-2.00;99.90
82877;DHT22;72655;47.596;7.658;2023-12-04T07:45:39;-1.90;99.90
82877;DHT22;72655;47.596;7.658;2023-12-04T07:48:06;-1.90;99.90
82877;DHT22;72655;47.596;7.658;2023-12-04T07:50:33;-1.90;99.90
82877;DHT22;72655;47.596;7.658;2023-12-04T07:53:00;-1.80;99.90
82877;DHT22;72655;47.596;7.658;2023-12-04T07:55:27;-1.80;99.90
82877;DHT22;72655;47.596;7.658;2023-12-04T07:57:55;-1.80;99.90
82877;DHT22;72655;47.596;7.658;2023-12-04T08:00:23;-1.70;99.90
82877;DHT22;72655;47.596;7.658;2023-12-04T08:02:51;-1.70;99.90
82877;DHT22;72655;47.596;7.658;2023-12-04T08:05:18;-1.70;99.90
82877;DHT22;72655;47.596;7.658;2023-12-04T08:07:44;-1.70;99.90
82877;DHT22;72655;47.596;7.658;2023-12-04T08:10:11;-1.70;99.90
82877;DHT22;72655;47.596;7.658;2023-12-04T08:12:38;-1.60;99.90
82877;DHT22;72655;47.596;7.658;2023-12-04T08:15:08;-1.60;99.90
82877;DHT22;72655;47.596;7.658;2023-12-04T08:17:35;-1.60;99.90
82877;DHT22;72655;47.596;7.658;2023-12-04T08:20:03;-1.60;99.90
82877;DHT22;72655;47.596;7.658;2023-12-04T08:22:30;-1.50;99.90
82877;DHT22;72655;47.596;7.658;2023-12-04T08:24:57;-1.60;99.90
82877;DHT22;72655;47.596;7.658;2023-12-04T08:27:24;-1.50;99.90
82877;DHT22;72655;47.596;7.658;2023-12-04T08:29:52;-1.50;99.90
82877;DHT22;72655;47.596;7.658;2023-12-04T08:32:20;-1.50;99.90
82877;DHT22;72655;47.596;7.658;2023-12-04T08:34:47;-1.50;99.90
82877;DHT22;72655;47.596;7.658;2023-12-04T08:37:14;-1.50;99.90
82877;DHT22;72655;47.596;7.658;2023-12-04T08:39:41;-1.50;99.90
82877;DHT22;72655;47.596;7.658;2023-12-04T08:42:08;-1.60;99.90
82877;DHT22;72655;47.596;7.658;2023-12-04T08:44:35;-1.50;99.90
82877;DHT22;72655;47.596;7.658;2023-12-04T08:47:03;-1.50;99.90
82877;DHT22;72655;47.596;7.658;2023-12-04T08:49:31;-1.60;99.90
82877;DHT22;72655;47.596;7.658;2023-12-04T08:51:59;-1.60;99.90
82877;DHT22;72655;47.596;7.658;2023-12-04T08:54:26;-1.50;99.90
82877;DHT22;72655;47.596;7.658;2023-12-04T08:56:53;-1.40;99.90
82877;DHT22;72655;47.596;7.658;2023-12-04T08:59:21;-1.40;99.90
82877;DHT22;72655;47.596;7.658;2023-12-04T09:01:47;-1.30;99.90
82877;DHT22;72655;47.596;7.658;2023-12-04T09:04:15;-1.30;99.90
82877;DHT22;72655;47.596;7.658;2023-12-04T09:06:43;-1.30;99.90
82877;DHT22;72655;47.596;7.658;2023-12-04T09:09:10;-1.30;99.90
82877;DHT22;72655;47.596;7.658;2023-12-04T09:11:41;-1.30;99.90
82877;DHT22;72655;47.596;7.658;2023-12-04T09:14:09;-1.20;99.90
82877;DHT22;72655;47.596;7.658;2023-12-04T09:16:36;-1.20;99.90
82877;DHT22;72655;47.596;7.658;2023-12-04T09:19:03;-1.20;99.90
82877;DHT22;72655;47.596;7.658;2023-12-04T09:21:30;-1.20;99.90
82877;DHT22;72655;47.596;7.658;2023-12-04T09:23:58;-1.20;99.90
82877;DHT22;72655;47.596;7.658;2023-12-04T09:26:25;-1.10;99.90
82877;DHT22;72655;47.596;7.658;2023-12-04T09:28:52;-1.00;99.90
82877;DHT22;72655;47.596;7.658;2023-12-04T09:31:19;-1.00;99.90
82877;DHT22;72655;47.596;7.658;2023-12-04T09:33:46;-0.90;99.90
82877;DHT22;72655;47.596;7.658;2023-12-04T09:36:13;-0.90;99.90
82877;DHT22;72655;47.596;7.658;2023-12-04T09:38:40;-0.80;99.90
82877;DHT22;72655;47.596;7.658;2023-12-04T09:41:09;-0.80;99.90
82877;DHT22;72655;47.596;7.658;2023-12-04T09:43:37;-0.70;99.90
82877;DHT22;72655;47.596;7.658;2023-12-04T09:46:07;-0.70;99.90
82877;DHT22;72655;47.596;7.658;2023-12-04T09:48:37;-0.70;99.90
82877;DHT22;72655;47.596;7.658;2023-12-04T09:51:06;-0.70;99.90
82877;DHT22;72655;47.596;7.658;2023-12-04T09:53:36;-0.70;99.90
82877;DHT22;72655;47.596;7.658;2023-12-04T09:56:04;-0.80;99.90
82877;DHT22;72655;47.596;7.658;2023-12-04T09:58:34;-0.80;99.90
82877;DHT22;72655;47.596;7.658;2023-12-04T10:01:05;-0.80;99.90
82877;DHT22;72655;47.596;7.658;2023-12-04T10:03:34;-0.80;99.90
82877;DHT22;72655;47.596;7.658;2023-12-04T10:06:01;-0.80;99.90
82877;DHT22;72655;47.596;7.658;2023-12-04T10:08:29;-0.90;99.90
82877;DHT22;72655;47.596;7.658;2023-12-04T10:10:56;-0.90;99.90
82877;DHT22;72655;47.596;7.658;2023-12-04T10:13:24;-0.90;99.90
82877;DHT22;72655;47.596;7.658;2023-12-04T10:15:54;-0.90;99.90
82877;DHT22;72655;47.596;7.658;2023-12-04T10:18:25;-0.80;99.90
82877;DHT22;72655;47.596;7.658;2023-12-04T10:20:53;-0.80;99.90
82877;DHT22;72655;47.596;7.658;2023-12-04T10:23:21;-0.80;99.90
82877;DHT22;72655;47.596;7.658;2023-12-04T10:25:49;-0.70;99.90
82877;DHT22;72655;47.596;7.658;2023-12-04T10:28:17;-0.80;99.90
82877;DHT22;72655;47.596;7.658;2023-12-04T10:30:45;-0.80;99.90
82877;DHT22;72655;47.596;7.658;2023-12-04T10:33:14;-0.80;99.90
82877;DHT22;72655;47.596;7.658;2023-12-04T10:35:41;-0.80;99.90
82877;DHT22;72655;47.596;7.658;2023-12-04T10:38:09;-0.80;99.90
82877;DHT22;72655;47.596;7.658;2023-12-04T10:40:37;-0.70;99.90
82877;DHT22;72655;47.596;7.658;2023-12-04T10:43:12;-0.60;99.90
82877;DHT22;72655;47.596;7.658;2023-12-04T10:45:39;-0.60;99.90
82877;DHT22;72655;47.596;7.658;2023-12-04T10:48:12;-0.60;99.90
82877;DHT22;72655;47.596;7.658;2023-12-04T10:50:42;-0.50;99.90
82877;DHT22;72655;47.596;7.658;2023-12-04T10:53:11;-0.50;99.90
82877;DHT22;72655;47.596;7.658;2023-12-04T10:55:39;-0.50;99.90
82877;DHT22;72655;47.596;7.658;2023-12-04T10:58:07;-0.50;99.90
82877;DHT22;72655;47.596;7.658;2023-12-04T11:00:39;-0.50;99.90
82877;DHT22;72655;47.596;7.658;2023-12-04T11:03:08;-0.40;99.90
82877;DHT22;72655;47.596;7.658;2023-12-04T11:05:38;-0.40;99.90
82877;DHT22;72655;47.596;7.658;2023-12-04T11:08:08;-0.40;99.90
82877;DHT22;72655;47.596;7.658;2023-12-04T11:10:45;-0.40;99.90
82877;DHT22;72655;47.596;7.658;2023-12-04T11:13:16;-0.40;99.90
82877;DHT22;72655;47.596;7.658;2023-12-04T11:15:46;-0.50;99.90
82877;DHT22;72655;47.596;7.658;2023-12-04T11:18:16;-0.50;99.90
82877;DHT22;72655;47.596;7.658;2023-12-04T11:20:51;-0.50;99.90
82877;DHT22;72655;47.596;7.658;2023-12-04T11:23:19;-0.50;99.90
82877;DHT22;72655;47.596;7.658;2023-12-04T11:25:46;-0.40;99.90
82877;DHT22;72655;47.596;7.658;2023-12-04T11:28:14;-0.40;99.90
82877;DHT22;72655;47.596;7.658;2023-12-04T11:30:42;-0.40;99.90
82877;DHT22;72655;47.596;7.658;2023-12-04T11:33:09;-0.30;99.90
82877;DHT22;72655;47.596;7.658;2023-12-04T11:35:38;-0.30;99.90
82877;DHT22;72655;47.596;7.658;2023-12-04T11:38:05;-0.30;99.90
82877;DHT22;72655;47.596;7.658;2023-12-04T11:40:37;-0.20;99.90
82877;DHT22;72655;47.596;7.658;2023-12-04T11:43:21;-0.20;99.90
82877;DHT22;72655;47.596;7.658;2023-12-04T11:45:49;-0.20;99.90
82877;DHT22;72655;47.596;7.658;2023-12-04T11:48:16;-0.20;99.90
82877;DHT22;72655;47.596;7.658;2023-12-04T11:50:43;-0.10;99.90
82877;DHT22;72655;47.596;7.658;2023-12-04T11:53:11;-0.10;99.90
82877;DHT22;72655;47.596;7.658;2023-12-04T11:55:41;-0.10;99.90
82877;DHT22;72655;47.596;7.658;2023-12-04T11:58:09;0.00;99.90
82877;DHT22;72655;47.596;7.658;2023-12-04T12:00:36;0.10;99.90
82877;DHT22;72655;47.596;7.658;2023-12-04T12:03:06;0.00;99.90
82877;DHT22;72655;47.596;7.658;2023-12-04T12:05:35;0.10;99.90
82877;DHT22;72655;47.596;7.658;2023-12-04T12:08:05;0.10;99.90
82877;DHT22;72655;47.596;7.658;2023-12-04T12:10:32;0.20;99.90
82877;DHT22;72655;47.596;7.658;2023-12-04T12:13:01;0.20;99.90
82877;DHT22;72655;47.596;7.658;2023-12-04T12:15:28;0.10;99.90
82877;DHT22;72655;47.596;7.658;2023-12-04T12:17:55;0.20;99.90
82877;DHT22;72655;47.596;7.658;2023-12-04T12:20:22;0.10;99.90
82877;DHT22;72655;47.596;7.658;2023-12-04T12:22:49;0.20;99.90
82877;DHT22;72655;47.596;7.658;2023-12-04T12:25:17;0.20;99.90
82877;DHT22;72655;47.596;7.658;2023-12-04T12:27:45;0.10;99.90
82877;DHT22;72655;47.596;7.658;2023-12-04T12:30:13;0.20;99.90
82877;DHT22;72655;47.596;7.658;2023-12-04T12:32:40;0.20;99.90
82877;DHT22;72655;47.596;7.658;2023-12-04T12:35:07;0.20;99.90
82877;DHT22;72655;47.596;7.658;2023-12-04T12:37:35;0.10;99.90
82877;DHT22;72655;47.596;7.658;2023-12-04T12:40:04;0.10;99.90
82877;DHT22;72655;47.596;7.658;2023-12-04T12:42:35;0.10;99.90
82877;DHT22;72655;47.596;7.658;2023-12-04T12:45:02;0.00;99.90
82877;DHT22;72655;47.596;7.658;2023-12-04T12:47:31;0.00;99.90
82877;DHT22;72655;47.596;7.658;2023-12-04T12:50:00;0.00;99.90
82877;DHT22;72655;47.596;7.658;2023-12-04T12:52:28;-0.10;99.90
82877;DHT22;72655;47.596;7.658;2023-12-04T12:54:55;-0.10;99.90
82877;DHT22;72655;47.596;7.658;2023-12-04T12:57:22;-0.10;99.90
82877;DHT22;72655;47.596;7.658;2023-12-04T12:59:51;-0.10;99.90
82877;DHT22;72655;47.596;7.658;2023-12-04T13:02:20;-0.10;99.90
82877;DHT22;72655;47.596;7.658;2023-12-04T13:04:48;-0.10;99.90
82877;DHT22;72655;47.596;7.658;2023-12-04T13:07:17;-0.10;99.90
82877;DHT22;72655;47.596;7.658;2023-12-04T13:09:44;0.00;99.90
82877;DHT22;72655;47.596;7.658;2023-12-04T13:12:13;0.00;99.90
82877;DHT22;72655;47.596;7.658;2023-12-04T13:14:40;0.00;99.90
82877;DHT22;72655;47.596;7.658;2023-12-04T13:17:07;0.00;99.90
82877;DHT22;72655;47.596;7.658;2023-12-04T13:19:34;0.10;99.90
82877;DHT22;72655;47.596;7.658;2023-12-04T13:22:03;0.10;99.90
82877;DHT22;72655;47.596;7.658;2023-12-04T13:24:30;0.10;99.90
82877;DHT22;72655;47.596;7.658;2023-12-04T13:26:57;0.10;99.90
82877;DHT22;72655;47.596;7.658;2023-12-04T13:29:24;0.20;99.90
82877;DHT22;72655;47.596;7.658;2023-12-04T13:31:51;0.20;99.90
82877;DHT22;72655;47.596;7.658;2023-12-04T13:34:18;0.20;99.90
82877;DHT22;72655;47.596;7.658;2023-12-04T13:36:45;0.30;99.90
82877;DHT22;72655;47.596;7.658;2023-12-04T13:39:13;0.30;99.90
82877;DHT22;72655;47.596;7.658;2023-12-04T13:41:46;0.30;99.90
82877;DHT22;72655;47.596;7.658;2023-12-04T13:44:30;0.30;99.90
82877;DHT22;72655;47.596;7.658;2023-12-04T13:46:58;0.30;99.90
82877;DHT22;72655;47.596;7.658;2023-12-04T13:49:25;0.30;99.90
82877;DHT22;72655;47.596;7.658;2023-12-04T13:51:52;0.30;99.90
82877;DHT22;72655;47.596;7.658;2023-12-04T13:54:21;0.30;99.90
82877;DHT22;72655;47.596;7.658;2023-12-04T13:57:00;0.30;99.90
82877;DHT22;72655;47.596;7.658;2023-12-04T13:59:29;0.30;99.90
82877;DHT22;72655;47.596;7.658;2023-12-04T14:01:58;0.30;99.90
82877;DHT22;72655;47.596;7.658;2023-12-04T14:04:26;0.20;99.90
82877;DHT22;72655;47.596;7.658;2023-12-04T14:06:53;0.20;99.90
82877;DHT22;72655;47.596;7.658;2023-12-04T14:09:22;0.20;99.90
82877;DHT22;72655;47.596;7.658;2023-12-04T14:11:49;0.20;99.90
82877;DHT22;72655;47.596;7.658;2023-12-04T14:14:15;0.20;99.90
82877;DHT22;72655;47.596;7.658;2023-12-04T14:16:42;0.20;99.90
82877;DHT22;72655;47.596;7.658;2023-12-04T14:19:11;0.20;99.90
82877;DHT22;72655;47.596;7.658;2023-12-04T14:21:40;0.20;99.90
82877;DHT22;72655;47.596;7.658;2023-12-04T14:24:07;0.20;99.90
82877;DHT22;72655;47.596;7.658;2023-12-04T14:26:35;0.10;99.90
82877;DHT22;72655;47.596;7.658;2023-12-04T14:29:03;0.10;99.90
82877;DHT22;72655;47.596;7.658;2023-12-04T14:31:30;0.10;99.90
82877;DHT22;72655;47.596;7.658;2023-12-04T14:33:56;0.10;99.90
82877;DHT22;72655;47.596;7.658;2023-12-04T14:36:23;0.10;99.90
82877;DHT22;72655;47.596;7.658;2023-12-04T14:38:52;0.10;99.90
82877;DHT22;72655;47.596;7.658;2023-12-04T14:41:19;0.10;99.90
82877;DHT22;72655;47.596;7.658;2023-12-04T14:43:48;0.10;99.90
82877;DHT22;72655;47.596;7.658;2023-12-04T14:46:15;0.20;99.90
82877;DHT22;72655;47.596;7.658;2023-12-04T14:48:42;0.10;99.90
82877;DHT22;72655;47.596;7.658;2023-12-04T14:51:10;0.10;99.90
82877;DHT22;72655;47.596;7.658;2023-12-04T14:53:37;0.10;99.90
82877;DHT22;72655;47.596;7.658;2023-12-04T14:56:12;0.10;99.90
82877;DHT22;72655;47.596;7.658;2023-12-04T14:58:57;0.10;99.90
82877;DHT22;72655;47.596;7.658;2023-12-04T15:01:53;0.10;99.90
82877;DHT22;72655;47.596;7.658;2023-12-04T15:04:37;0.10;99.90
82877;DHT22;72655;47.596;7.658;2023-12-04T15:07:23;0.10;99.90
82877;DHT22;72655;47.596;7.658;2023-12-04T15:10:20;0.10;99.90
82877;DHT22;72655;47.596;7.658;2023-12-04T15:13:25;0.10;99.90
82877;DHT22;72655;47.596;7.658;2023-12-04T15:16:11;0.10;99.90
82877;DHT22;72655;47.596;7.658;2023-12-04T15:18:51;0.10;99.90
82877;DHT22;72655;47.596;7.658;2023-12-04T15:21:40;0.20;99.90
82877;DHT22;72655;47.596;7.658;2023-12-04T15:24:07;0.20;99.90
82877;DHT22;72655;47.596;7.658;2023-12-04T15:26:33;0.20;99.90
82877;DHT22;72655;47.596;7.658;2023-12-04T15:29:00;0.20;99.90
82877;DHT22;72655;47.596;7.658;2023-12-04T15:31:27;0.30;99.90
82877;DHT22;72655;47.596;7.658;2023-12-04T15:33:54;0.40;99.90
82877;DHT22;72655;47.596;7.658;2023-12-04T15:36:20;0.40;99.90
82877;DHT22;72655;47.596;7.658;2023-12-04T15:38:47;0.50;99.90
82877;DHT22;72655;47.596;7.658;2023-12-04T15:41:13;0.40;99.90
82877;DHT22;72655;47.596;7.658;2023-12-04T15:43:42;0.40;99.90
82877;DHT22;72655;47.596;7.658;2023-12-04T15:46:10;0.40;99.90
82877;DHT22;72655;47.596;7.658;2023-12-04T15:48:38;0.40;99.90
82877;DHT22;72655;47.596;7.658;2023-12-04T15:51:04;0.30;99.90
82877;DHT22;72655;47.596;7.658;2023-12-04T15:53:32;0.30;99.90
82877;DHT22;72655;47.596;7.658;2023-12-04T15:55:58;0.30;99.90
82877;DHT22;72655;47.596;7.658;2023-12-04T15:58:25;0.30;99.90
82877;DHT22;72655;47.596;7.658;2023-12-04T16:00:51;0.30;99.90
82877;DHT22;72655;47.596;7.658;2023-12-04T16:03:18;0.30;99.90
82877;DHT22;72655;47.596;7.658;2023-12-04T16:05:45;0.30;99.90
82877;DHT22;72655;47.596;7.658;2023-12-04T16:08:13;0.40;99.90
82877;DHT22;72655;47.596;7.658;2023-12-04T16:10:40;0.40;99.90
82877;DHT22;72655;47.596;7.658;2023-12-04T16:13:07;0.40;99.90
82877;DHT22;72655;47.596;7.658;2023-12-04T16:15:35;0.50;99.90
82877;DHT22;72655;47.596;7.658;2023-12-04T16:18:02;0.40;99.90
82877;DHT22;72655;47.596;7.658;2023-12-04T16:20:29;0.50;99.90
82877;DHT22;72655;47.596;7.658;2023-12-04T16:22:57;0.50;99.90
82877;DHT22;72655;47.596;7.658;2023-12-04T16:25:24;0.50;99.90
82877;DHT22;72655;47.596;7.658;2023-12-04T16:27:51;0.50;99.90
82877;DHT22;72655;47.596;7.658;2023-12-04T16:30:19;0.50;99.90
82877;DHT22;72655;47.596;7.658;2023-12-04T16:32:47;0.50;99.90
82877;DHT22;72655;47.596;7.658;2023-12-04T16:35:14;0.50;99.90
82877;DHT22;72655;47.596;7.658;2023-12-04T16:37:41;0.50;99.90
82877;DHT22;72655;47.596;7.658;2023-12-04T16:40:10;0.50;99.90
82877;DHT22;72655;47.596;7.658;2023-12-04T16:42:38;0.50;99.90
82877;DHT22;72655;47.596;7.658;2023-12-04T16:45:06;0.50;99.90
82877;DHT22;72655;47.596;7.658;2023-12-04T16:47:33;0.40;99.90
82877;DHT22;72655;47.596;7.658;2023-12-04T16:50:00;0.40;99.90
82877;DHT22;72655;47.596;7.658;2023-12-04T16:52:28;0.40;99.90
82877;DHT22;72655;47.596;7.658;2023-12-04T16:54:55;0.40;99.90
82877;DHT22;72655;47.596;7.658;2023-12-04T16:57:23;0.40;99.90
82877;DHT22;72655;47.596;7.658;2023-12-04T16:59:51;0.40;99.90
82877;DHT22;72655;47.596;7.658;2023-12-04T17:02:18;0.40;99.90
82877;DHT22;72655;47.596;7.658;2023-12-04T17:04:44;0.40;99.90
82877;DHT22;72655;47.596;7.658;2023-12-04T17:07:11;0.40;99.90
82877;DHT22;72655;47.596;7.658;2023-12-04T17:09:38;0.40;99.90
82877;DHT22;72655;47.596;7.658;2023-12-04T17:12:06;0.40;99.90
82877;DHT22;72655;47.596;7.658;2023-12-04T17:14:34;0.40;99.90
82877;DHT22;72655;47.596;7.658;2023-12-04T17:17:01;0.50;99.90
82877;DHT22;72655;47.596;7.658;2023-12-04T17:19:28;0.50;99.90
82877;DHT22;72655;47.596;7.658;2023-12-04T17:21:57;0.50;99.90
82877;DHT22;72655;47.596;7.658;2023-12-04T17:24:24;0.50;99.90
82877;DHT22;72655;47.596;7.658;2023-12-04T17:26:51;0.60;99.90
82877;DHT22;72655;47.596;7.658;2023-12-04T17:29:18;0.60;99.90
82877;DHT22;72655;47.596;7.658;2023-12-04T17:31:46;0.60;99.90
82877;DHT22;72655;47.596;7.658;2023-12-04T17:34:13;0.60;99.90
82877;DHT22;72655;47.596;7.658;2023-12-04T17:36:40;0.60;99.90
82877;DHT22;72655;47.596;7.658;2023-12-04T17:39:11;0.60;99.90
82877;DHT22;72655;47.596;7.658;2023-12-04T17:41:42;0.60;99.90
82877;DHT22;72655;47.596;7.658;2023-12-04T17:44:10;0.50;99.90
82877;DHT22;72655;47.596;7.658;2023-12-04T17:46:38;0.60;99.90
82877;DHT22;72655;47.596;7.658;2023-12-04T17:49:06;0.60;99.90
82877;DHT22;72655;47.596;7.658;2023-12-04T17:51:33;0.60;99.90
82877;DHT22;72655;47.596;7.658;2023-12-04T17:54:00;0.60;99.90
82877;DHT22;72655;47.596;7.658;2023-12-04T17:56:27;0.60;99.90
82877;DHT22;72655;47.596;7.658;2023-12-04T17:58:56;0.70;99.90
82877;DHT22;72655;47.596;7.658;2023-12-04T18:01:25;0.70;99.90
82877;DHT22;72655;47.596;7.658;2023-12-04T18:03:52;0.70;99.90
82877;DHT22;72655;47.596;7.658;2023-12-04T18:06:26;0.70;99.90
82877;DHT22;72655;47.596;7.658;2023-12-04T18:08:53;0.80;99.90
82877;DHT22;72655;47.596;7.658;2023-12-04T18:11:20;0.80;99.90
82877;DHT22;72655;47.596;7.658;2023-12-04T18:13:47;0.80;99.90
82877;DHT22;72655;47.596;7.658;2023-12-04T18:16:14;0.80;99.90
82877;DHT22;72655;47.596;7.658;2023-12-04T18:18:41;0.80;99.90
82877;DHT22;72655;47.596;7.658;2023-12-04T18:21:08;0.90;99.90
82877;DHT22;72655;47.596;7.658;2023-12-04T18:23:37;0.90;99.90
82877;DHT22;72655;47.596;7.658;2023-12-04T18:26:05;0.90;99.90
82877;DHT22;72655;47.596;7.658;2023-12-04T18:28:34;0.90;99.90
82877;DHT22;72655;47.596;7.658;2023-12-04T18:31:02;1.00;99.90
82877;DHT22;72655;47.596;7.658;2023-12-04T18:33:29;1.00;99.90
82877;DHT22;72655;47.596;7.658;2023-12-04T18:35:59;1.00;99.90
82877;DHT22;72655;47.596;7.658;2023-12-04T18:38:31;1.00;99.90
82877;DHT22;72655;47.596;7.658;2023-12-04T18:41:00;1.10;99.90
82877;DHT22;72655;47.596;7.658;2023-12-04T18:43:27;1.10;99.90
82877;DHT22;72655;47.596;7.658;2023-12-04T18:45:55;1.10;99.90
82877;DHT22;72655;47.596;7.658;2023-12-04T18:48:24;1.20;99.90
